Time;durP1;ratioP1;P1;durP2;ratioP2;P2;SDS_P1;SDS_P2;PMS_P1;PMS_P2;Temp;Humidity;BMP_temperature;BMP_pressure;BME280_temperature;BME280_humidity;BME280_pressure;Samples;Min_cycle;Max_cycle;Signal;HPM_P1;HPM_P2
2020/12/29 00:01:51;;;;;;;7.72;5.05;;;;;;;4.94;82.89;96956.03;8714026;33;20180;-73
2020/12/29 00:06:57;;;;;;;7.82;5.05;;;;;;;4.90;82.46;96960.81;8716196;33;20424;-73
2020/12/29 00:11:59;;;;;;;7.28;4.97;;;;;;;4.86;82.04;96957.66;8715327;33;20238;-73
2020/12/29 00:17:02;;;;;;;8.93;5.10;;;;;;;4.89;81.68;96948.59;8715536;33;20244;-73
2020/12/29 00:22:05;;;;;;;9.03;5.23;;;;;;;4.85;81.53;96963.06;8715339;33;20601;-72
2020/12/29 00:27:07;;;;;;;9.48;4.82;;;;;;;4.78;81.49;96954.94;8715528;33;20152;-72
2020/12/29 00:32:10;;;;;;;9.90;5.40;;;;;;;4.86;81.16;96954.19;8715053;33;20239;-73
2020/12/29 00:37:13;;;;;;;7.00;4.85;;;;;;;4.92;80.95;96948.28;8716130;33;20463;-73
2020/12/29 00:42:17;;;;;;;9.05;5.30;;;;;;;4.96;80.26;96939.03;8714904;33;21686;-72
2020/12/29 00:47:21;;;;;;;9.65;5.03;;;;;;;4.99;80.20;96938.78;8713674;33;20685;-73
2020/12/29 00:52:23;;;;;;;6.85;4.60;;;;;;;4.99;79.92;96936.13;8713585;33;20274;-73
2020/12/29 00:57:36;;;;;;;8.35;4.97;;;;;;;4.95;79.86;96936.56;8690341;33;20215;-73
2020/12/29 01:02:44;;;;;;;6.28;4.35;;;;;;;4.84;79.82;96937.63;8690168;33;20176;-73
2020/12/29 01:07:53;;;;;;;7.23;4.30;;;;;;;4.82;80.11;96943.06;8713892;33;20187;-73
2020/12/29 01:12:56;;;;;;;8.68;4.63;;;;;;;4.83;80.27;96949.19;8718242;33;20152;-72
2020/12/29 01:17:59;;;;;;;6.97;4.70;;;;;;;4.83;79.68;96957.13;8718607;33;20239;-73
2020/12/29 01:23:02;;;;;;;7.47;4.45;;;;;;;4.88;79.45;96958.34;8719195;33;20862;-72
2020/12/29 01:28:04;;;;;;;7.75;4.97;;;;;;;4.95;79.89;96957.72;8719099;33;20858;-73
2020/12/29 01:33:07;;;;;;;6.82;4.80;;;;;;;5.00;80.10;96963.41;8719027;33;20258;-73
2020/12/29 01:38:10;;;;;;;8.18;4.85;;;;;;;4.96;80.05;96962.84;8719226;33;20244;-73
2020/12/29 01:43:12;;;;;;;6.43;4.70;;;;;;;4.95;81.22;96974.44;8718709;33;20742;-73
2020/12/29 01:48:15;;;;;;;9.38;4.70;;;;;;;4.97;81.14;96964.53;8736878;33;20191;-73
2020/12/29 01:53:18;;;;;;;7.30;4.53;;;;;;;4.88;81.26;96966.28;8718588;33;20988;-72
2020/12/29 01:58:20;;;;;;;6.85;4.50;;;;;;;4.77;80.74;96971.78;8718720;33;20174;-73
2020/12/29 02:03:23;;;;;;;10.48;5.13;;;;;;;4.72;80.26;96974.03;8718831;33;20281;-72
2020/12/29 02:08:26;;;;;;;8.43;4.30;;;;;;;4.70;80.15;96976.00;8719336;33;20988;-71
2020/12/29 02:13:28;;;;;;;5.75;4.03;;;;;;;4.63;79.84;96974.91;8717674;33;20192;-72
2020/12/29 02:18:32;;;;;;;5.83;3.93;;;;;;;4.61;79.28;96975.09;8718403;33;20156;-72
2020/12/29 02:23:35;;;;;;;4.97;3.85;;;;;;;4.61;79.36;96969.78;8717356;33;20182;-72
2020/12/29 02:28:38;;;;;;;5.47;3.22;;;;;;;4.55;79.49;96975.69;8717987;33;20522;-72
2020/12/29 02:33:40;;;;;;;4.70;3.67;;;;;;;4.50;80.23;96982.34;8717159;33;21039;-72
2020/12/29 02:38:43;;;;;;;5.00;3.70;;;;;;;4.38;80.45;96981.72;8717703;33;20241;-72
2020/12/29 02:43:47;;;;;;;5.93;3.80;;;;;;;4.34;81.42;96996.22;8693026;33;20222;-72
2020/12/29 02:48:49;;;;;;;5.03;3.70;;;;;;;4.29;81.47;97014.34;8716859;33;20283;-72
2020/12/29 02:53:53;;;;;;;4.67;3.37;;;;;;;4.26;82.09;97014.63;8717047;33;20539;-72
2020/12/29 02:58:55;;;;;;;6.20;3.70;;;;;;;4.23;82.20;97021.03;8692229;33;20774;-72
2020/12/29 03:03:57;;;;;;;7.33;4.30;;;;;;;4.28;82.55;97024.06;8717300;33;20299;-72
2020/12/29 03:09:00;;;;;;;7.60;3.63;;;;;;;4.26;82.83;97030.47;8717162;33;20226;-71
2020/12/29 03:14:06;;;;;;;7.57;4.22;;;;;;;4.22;82.71;97037.84;8717093;33;20497;-71
2020/12/29 03:19:09;;;;;;;7.22;4.18;;;;;;;4.14;83.03;97038.59;8716284;33;20248;-72
2020/12/29 03:24:12;;;;;;;7.55;4.15;;;;;;;4.17;82.99;97051.50;8716711;33;20207;-72
2020/12/29 03:29:15;;;;;;;5.35;4.00;;;;;;;4.19;83.00;97052.16;8716554;33;20144;-71
2020/12/29 03:34:23;;;;;;;6.60;4.67;;;;;;;4.27;83.21;97053.28;8715889;33;20689;-72
2020/12/29 03:39:26;;;;;;;4.63;3.87;;;;;;;4.36;83.16;97049.75;8716296;33;20242;-72
2020/12/29 03:44:28;;;;;;;6.03;4.87;;;;;;;4.46;83.21;97059.31;8716092;33;20176;-72
2020/12/29 03:49:31;;;;;;;5.83;4.70;;;;;;;4.47;83.09;97052.22;8716105;33;20202;-71
2020/12/29 03:54:34;;;;;;;6.30;4.13;;;;;;;4.46;83.33;97061.94;8716225;33;20259;-71
2020/12/29 03:59:36;;;;;;;7.30;4.82;;;;;;;4.41;83.11;97061.56;8715671;33;20226;-72
2020/12/29 04:04:38;;;;;;;7.85;4.50;;;;;;;4.39;82.90;97067.97;8716458;33;20210;-72
2020/12/29 04:09:42;;;;;;;5.43;4.27;;;;;;;4.35;82.82;97067.41;8716008;33;21546;-72
2020/12/29 04:14:44;;;;;;;6.37;4.30;;;;;;;4.30;82.28;97072.31;8716293;33;20182;-72
2020/12/29 04:19:46;;;;;;;4.90;3.88;;;;;;;4.34;82.60;97063.13;8715316;33;20285;-72
2020/12/29 04:24:49;;;;;;;7.00;4.43;;;;;;;4.23;82.61;97052.72;8716310;33;20414;-72
2020/12/29 04:29:52;;;;;;;7.10;4.03;;;;;;;4.14;82.57;97070.28;8715114;33;20891;-71
2020/12/29 04:34:54;;;;;;;5.38;4.28;;;;;;;4.11;82.76;97073.19;8715180;33;20642;-72
2020/12/29 04:40:05;;;;;;;6.87;4.50;;;;;;;4.00;82.59;97070.72;8715323;33;20270;-73
2020/12/29 04:45:08;;;;;;;6.53;4.40;;;;;;;3.83;82.77;97064.34;8717337;33;20144;-73
2020/12/29 04:50:14;;;;;;;6.70;4.87;;;;;;;3.72;82.70;97077.72;8720299;33;20187;-71
2020/12/29 04:55:28;;;;;;;7.03;4.73;;;;;;;3.70;82.67;97079.66;8720165;33;20785;-72
2020/12/29 05:00:31;;;;;;;9.90;6.13;;;;;;;3.67;82.62;97086.03;8719661;33;20128;-72
2020/12/29 05:05:33;;;;;;;8.57;5.43;;;;;;;3.63;83.01;97095.22;8719824;33;20227;-72
2020/12/29 05:10:48;;;;;;;9.33;5.30;;;;;;;3.57;82.95;97095.78;8719505;33;20151;-71
2020/12/29 05:15:50;;;;;;;9.97;5.47;;;;;;;3.48;82.65;97094.81;8719607;33;20191;-73
2020/12/29 05:20:53;;;;;;;9.10;5.47;;;;;;;3.38;82.39;97107.16;8719254;33;20623;-73
2020/12/29 05:25:57;;;;;;;9.13;5.43;;;;;;;3.33;82.92;97114.66;8719329;33;20223;-71
2020/12/29 05:31:01;;;;;;;9.83;5.70;;;;;;;3.28;82.70;97122.97;8719091;33;20278;-72
2020/12/29 05:36:04;;;;;;;10.40;5.57;;;;;;;3.28;83.00;97114.22;8719519;33;21769;-71
2020/12/29 05:41:14;;;;;;;10.60;5.80;;;;;;;3.20;82.71;97135.19;8718658;33;20230;-71
2020/12/29 05:46:16;;;;;;;9.37;5.63;;;;;;;3.14;83.00;97135.72;8718979;33;20195;-72
2020/12/29 05:51:21;;;;;;;8.73;6.00;;;;;;;3.02;82.79;97141.13;8718489;33;20237;-72
2020/12/29 05:56:29;;;;;;;10.43;6.30;;;;;;;2.95;83.02;97144.41;8717982;33;20180;-72
2020/12/29 06:01:42;;;;;;;11.73;6.30;;;;;;;3.05;82.81;97146.13;8718544;33;20196;-72
2020/12/29 06:06:46;;;;;;;11.77;6.30;;;;;;;3.20;83.25;97161.56;8718916;33;20613;-72
2020/12/29 06:11:55;;;;;;;10.30;5.50;;;;;;;3.21;82.99;97165.84;8718453;33;20249;-73
2020/12/29 06:16:57;;;;;;;11.73;6.17;;;;;;;3.19;82.66;97171.28;8718054;33;20183;-72
2020/12/29 06:22:06;;;;;;;10.93;6.03;;;;;;;3.15;82.34;97179.59;8718292;33;20243;-72
2020/12/29 06:27:12;;;;;;;14.37;6.47;;;;;;;2.96;81.82;97175.09;8717900;33;20757;-71
2020/12/29 06:32:19;;;;;;;11.67;6.50;;;;;;;3.10;81.72;97180.84;8717814;33;21015;-72
2020/12/29 06:37:25;;;;;;;13.50;5.57;;;;;;;3.36;80.00;97190.91;8692884;33;20735;-72
2020/12/29 06:42:29;;;;;;;11.70;6.60;;;;;;;3.52;79.28;97200.94;8717775;33;20917;-72
2020/12/29 06:47:31;;;;;;;11.87;6.37;;;;;;;3.63;78.67;97200.81;8717348;33;20198;-72
2020/12/29 06:52:35;;;;;;;15.47;6.97;;;;;;;3.73;78.91;97206.94;8717068;33;20260;-72
2020/12/29 06:57:49;;;;;;;14.13;7.23;;;;;;;3.85;78.37;97214.75;8717052;33;20156;-73
2020/12/29 07:02:54;;;;;;;12.13;5.63;;;;;;;3.87;77.96;97221.56;8692876;33;20421;-72
2020/12/29 07:07:59;;;;;;;14.53;6.83;;;;;;;3.92;78.19;97226.41;8717010;33;21469;-72
2020/12/29 07:13:11;;;;;;;15.77;7.53;;;;;;;3.87;77.95;97226.00;8716611;33;20757;-72
2020/12/29 07:18:23;;;;;;;11.23;5.80;;;;;;;3.73;78.77;97243.91;8717009;33;20187;-72
2020/12/29 07:23:28;;;;;;;12.73;7.10;;;;;;;3.79;78.82;97253.09;8716276;33;20780;-72
2020/12/29 07:28:31;;;;;;;13.73;6.73;;;;;;;3.84;79.07;97263.22;8716376;33;20183;-73
2020/12/29 07:33:48;;;;;;;10.00;6.37;;;;;;;3.83;78.63;97262.41;8716112;33;20726;-71
2020/12/29 07:38:51;;;;;;;13.90;6.90;;;;;;;3.94;78.98;97279.91;8691878;33;20286;-71
2020/12/29 07:43:54;;;;;;;11.70;5.80;;;;;;;3.94;79.09;97278.13;8715839;33;20199;-72
2020/12/29 07:48:58;;;;;;;15.00;7.23;;;;;;;3.97;79.28;97290.22;8712668;33;20183;-71
2020/12/29 07:54:04;;;;;;;10.80;7.07;;;;;;;3.97;78.92;97301.59;8715569;33;20245;-72
2020/12/29 07:59:09;;;;;;;13.80;6.15;;;;;;;4.09;79.73;97312.06;8714891;33;20179;-72
2020/12/29 08:04:22;;;;;;;12.10;6.47;;;;;;;4.19;80.44;97318.19;8715441;33;20193;-71
2020/12/29 08:09:25;;;;;;;8.70;4.77;;;;;;;4.23;80.75;97323.06;8715355;33;20279;-72
2020/12/29 08:14:28;;;;;;;18.33;8.77;;;;;;;4.49;80.57;97330.44;8715603;33;20187;-71
2020/12/29 08:19:31;;;;;;;17.65;9.10;;;;;;;4.70;80.28;97343.53;8716289;33;20318;-71
2020/12/29 08:24:34;;;;;;;16.00;7.63;;;;;;;4.65;79.81;97349.22;8720887;33;20836;-71
2020/12/29 08:29:38;;;;;;;12.75;7.05;;;;;;;4.80;79.96;97359.38;8720017;33;20700;-72
2020/12/29 08:34:45;;;;;;;10.65;6.78;;;;;;;5.04;79.50;97369.53;8742588;33;20407;-71
2020/12/29 08:39:57;;;;;;;14.27;7.43;;;;;;;5.38;78.58;97384.94;8720043;33;20488;-71
2020/12/29 08:45:00;;;;;;;11.50;7.40;;;;;;;5.54;76.37;97391.31;8720061;33;20164;-71
2020/12/29 08:50:27;;;;;;;11.85;7.10;;;;;;;5.30;75.19;97397.06;8670230;33;20703;-71
2020/12/29 08:55:31;;;;;;;12.40;7.05;;;;;;;5.33;74.62;97410.00;8660723;33;20133;-71
2020/12/29 09:00:45;;;;;;;14.68;7.70;;;;;;;5.71;72.87;97418.84;8661949;33;20172;-71
2020/12/29 09:05:50;;;;;;;12.60;7.10;;;;;;;5.48;71.89;97428.91;8662761;33;20176;-71
2020/12/29 09:11:08;;;;;;;11.15;6.28;;;;;;;5.23;72.69;97446.25;8662389;33;20202;-71
2020/12/29 09:16:13;;;;;;;12.13;6.20;;;;;;;5.22;72.97;97457.81;8721534;33;20447;-71
2020/12/29 09:21:25;;;;;;;8.48;5.30;;;;;;;5.14;73.14;97465.63;8719613;33;20237;-71
2020/12/29 09:26:29;;;;;;;10.35;5.18;;;;;;;5.31;72.41;97477.31;8720353;33;20912;-71
2020/12/29 09:31:32;;;;;;;9.02;5.10;;;;;;;5.35;72.06;97486.66;8717934;33;20202;-71
2020/12/29 09:36:43;;;;;;;11.20;5.10;;;;;;;5.35;72.72;97492.78;8719626;33;20405;-71
2020/12/29 09:41:45;;;;;;;8.48;5.72;;;;;;;5.20;72.93;97507.41;8718920;33;20231;-71
2020/12/29 09:46:48;;;;;;;10.68;6.07;;;;;;;5.45;72.70;97506.00;8718986;33;20191;-71
2020/12/29 09:51:53;;;;;;;8.80;5.65;;;;;;;5.75;71.30;97517.38;8719310;33;20227;-71
2020/12/29 09:56:57;;;;;;;10.35;6.18;;;;;;;6.15;70.66;97517.19;8716700;33;20272;-71
2020/12/29 10:02:00;;;;;;;10.13;6.38;;;;;;;6.31;69.91;97526.31;8718048;33;20144;-71
2020/12/29 10:07:02;;;;;;;11.48;6.63;;;;;;;6.17;70.84;97541.75;8719408;33;20163;-71
2020/12/29 10:12:04;;;;;;;8.40;6.45;;;;;;;5.94;70.94;97541.22;8719119;33;20191;-71
2020/12/29 10:17:08;;;;;;;8.18;5.60;;;;;;;6.18;71.09;97548.69;8719854;33;20439;-71
2020/12/29 10:22:10;;;;;;;9.18;6.07;;;;;;;6.37;70.20;97542.50;8717741;33;20187;-71
2020/12/29 10:27:12;;;;;;;8.60;5.28;;;;;;;6.26;70.10;97552.47;8719086;33;20152;-72
2020/12/29 10:32:17;;;;;;;10.65;5.60;;;;;;;5.23;73.88;97556.56;8718232;33;20192;-72
2020/12/29 10:37:19;;;;;;;10.30;7.05;;;;;;;5.01;74.77;97566.44;8718405;33;20183;-71
2020/12/29 10:42:22;;;;;;;7.83;5.10;;;;;;;4.97;74.92;97567.69;8719063;33;21181;-71
2020/12/29 10:47:25;;;;;;;7.82;4.28;;;;;;;4.88;75.42;97581.69;8718137;33;20176;-71
2020/12/29 10:52:27;;;;;;;12.98;5.75;;;;;;;5.08;76.34;97583.44;8717661;33;20241;-72
2020/12/29 10:57:29;;;;;;;8.57;5.63;;;;;;;5.11;75.73;97583.16;8717892;33;20214;-71
2020/12/29 11:02:32;;;;;;;8.95;5.57;;;;;;;5.16;75.76;97588.06;8717094;33;20463;-71
2020/12/29 11:07:35;;;;;;;8.68;4.80;;;;;;;4.99;76.18;97605.44;8717819;33;20152;-71
2020/12/29 11:12:37;;;;;;;7.95;4.93;;;;;;;5.19;75.93;97595.72;8719507;33;20214;-70
2020/12/29 11:17:40;;;;;;;8.45;5.18;;;;;;;5.27;75.72;97601.16;8719253;33;20185;-71
2020/12/29 11:22:44;;;;;;;11.77;5.47;;;;;;;5.57;74.82;97597.56;8718075;33;20911;-70
2020/12/29 11:27:47;;;;;;;13.90;5.45;;;;;;;5.60;74.10;97604.41;8717819;33;20612;-71
2020/12/29 11:32:54;;;;;;;10.50;5.63;;;;;;;5.61;73.98;97607.88;8717186;33;20447;-71
2020/12/29 11:37:56;;;;;;;9.60;5.63;;;;;;;5.73;73.76;97614.69;8716817;33;20556;-71
2020/12/29 11:42:58;;;;;;;15.80;5.82;;;;;;;5.74;73.83;97619.03;8718691;33;20235;-70
2020/12/29 11:48:01;;;;;;;11.73;6.32;;;;;;;5.70;74.14;97622.91;8718177;33;20638;-70
2020/12/29 11:53:04;;;;;;;12.85;6.78;;;;;;;5.79;74.07;97630.06;8715595;33;20557;-70
2020/12/29 11:58:07;;;;;;;9.73;5.60;;;;;;;5.60;74.54;97627.41;8713733;33;20171;-71
2020/12/29 12:03:10;;;;;;;11.75;6.40;;;;;;;5.56;74.72;97626.81;8716022;33;20158;-70
2020/12/29 12:08:12;;;;;;;13.60;6.53;;;;;;;5.77;73.96;97624.88;8691632;33;20179;-70
2020/12/29 12:13:15;;;;;;;10.20;6.10;;;;;;;5.79;73.23;97633.53;8715036;33;20179;-71
2020/12/29 12:18:30;;;;;;;13.10;6.57;;;;;;;5.68;73.42;97633.69;8712348;33;20176;-71
2020/12/29 12:23:36;;;;;;;10.07;5.18;;;;;;;5.55;73.84;97635.75;8713739;33;20678;-71
2020/12/29 12:28:39;;;;;;;7.63;4.13;;;;;;;5.78;73.78;97647.72;8716350;33;20244;-71
2020/12/29 12:33:43;;;;;;;10.73;5.55;;;;;;;5.72;73.74;97645.66;8715627;33;20244;-71
2020/12/29 12:38:47;;;;;;;10.63;5.53;;;;;;;5.77;73.87;97651.38;8715570;33;20640;-72
2020/12/29 12:43:49;;;;;;;12.75;6.38;;;;;;;5.74;73.55;97651.66;8715102;33;20294;-71
2020/12/29 12:48:52;;;;;;;11.10;5.65;;;;;;;5.58;74.07;97664.59;8714887;33;20283;-71
2020/12/29 12:53:55;;;;;;;11.00;5.65;;;;;;;5.77;74.51;97677.88;8715535;33;21614;-71
2020/12/29 12:58:58;;;;;;;4.97;4.28;;;;;;;5.80;73.70;97690.81;8713651;33;20175;-70
2020/12/29 13:04:01;;;;;;;14.32;6.70;;;;;;;5.77;73.80;97692.94;8712849;33;20621;-72
2020/12/29 13:09:04;;;;;;;14.75;8.25;;;;;;;5.62;74.63;97702.22;8718752;33;20195;-70
2020/12/29 13:14:06;;;;;;;12.73;6.85;;;;;;;5.46;75.53;97716.03;8718993;33;20184;-70
2020/12/29 13:19:09;;;;;;;15.88;6.72;;;;;;;5.50;75.18;97728.00;8718217;33;20313;-70
2020/12/29 13:24:12;;;;;;;15.27;6.47;;;;;;;5.35;76.44;97725.75;8719291;33;20447;-71
2020/12/29 13:29:14;;;;;;;10.73;6.65;;;;;;;5.62;75.44;97737.50;8718064;33;20224;-70
2020/12/29 13:34:20;;;;;;;13.85;6.68;;;;;;;5.43;76.79;97751.53;8718642;33;21039;-71
2020/12/29 13:39:22;;;;;;;12.55;5.78;;;;;;;5.08;77.70;97760.72;8718133;33;20805;-70
2020/12/29 13:44:24;;;;;;;17.98;6.70;;;;;;;5.43;77.59;97772.72;8717868;33;20211;-70
2020/12/29 13:49:27;;;;;;;11.07;6.07;;;;;;;5.16;77.65;97783.91;8718012;33;21101;-71
2020/12/29 13:54:30;;;;;;;11.70;6.68;;;;;;;5.02;78.31;97798.31;8718054;33;20406;-71
2020/12/29 13:59:32;;;;;;;20.02;8.13;;;;;;;4.90;78.41;97788.75;8693186;33;20193;-71
2020/12/29 14:04:36;;;;;;;19.88;9.77;;;;;;;5.01;77.87;97809.00;8717619;33;20184;-71
2020/12/29 14:09:39;;;;;;;14.97;7.70;;;;;;;4.60;79.35;97832.69;8717348;33;20528;-70
2020/12/29 14:14:45;;;;;;;21.45;10.90;;;;;;;4.84;78.84;97832.44;8717478;33;20172;-70
2020/12/29 14:19:48;;;;;;;17.20;9.23;;;;;;;4.95;78.05;97854.53;8669258;33;20198;-69
2020/12/29 14:24:53;;;;;;;22.42;11.43;;;;;;;4.95;78.90;97878.34;8717377;33;20191;-69
2020/12/29 14:29:56;;;;;;;21.25;9.65;;;;;;;4.78;79.67;97888.50;8716534;33;20187;-71
2020/12/29 14:34:59;;;;;;;32.50;14.77;;;;;;;4.61;80.37;97895.19;8716957;33;20156;-71
2020/12/29 14:40:03;;;;;;;19.43;9.40;;;;;;;4.60;80.42;97898.78;8716998;33;20183;-70
2020/12/29 14:45:09;;;;;;;29.33;9.55;;;;;;;4.53;80.60;97915.31;8716795;33;21504;-70
2020/12/29 14:50:13;;;;;;;23.93;9.60;;;;;;;4.75;79.51;97906.44;8691884;33;20458;-70
2020/12/29 14:55:15;;;;;;;19.13;7.93;;;;;;;4.80;79.42;97902.47;8716065;33;20199;-70
2020/12/29 15:00:17;;;;;;;25.87;11.43;;;;;;;4.98;78.30;97909.81;8715546;33;20333;-69
2020/12/29 15:05:20;;;;;;;19.80;8.40;;;;;;;4.90;78.53;97915.75;8716225;33;20649;-69
2020/12/29 15:10:23;;;;;;;29.27;14.70;;;;;;;5.13;78.16;97921.78;8713946;33;20214;-71
2020/12/29 15:15:25;;;;;;;19.80;10.57;;;;;;;4.99;79.91;97935.31;8716085;33;20159;-70
2020/12/29 15:20:29;;;;;;;23.17;9.50;;;;;;;4.62;82.03;97944.47;8713612;33;20211;-70
2020/12/29 15:25:31;;;;;;;17.48;8.90;;;;;;;4.41;83.37;97943.53;8715722;33;20205;-71
2020/12/29 15:30:34;;;;;;;14.30;7.83;;;;;;;4.58;82.65;97953.63;8714368;33;20749;-70
2020/12/29 15:35:37;;;;;;;26.10;12.43;;;;;;;4.53;83.06;97984.03;8714948;33;21623;-71
2020/12/29 15:40:39;;;;;;;17.43;8.33;;;;;;;4.53;83.72;97973.47;8713983;33;20646;-71
2020/12/29 15:45:42;;;;;;;10.80;6.30;;;;;;;4.32;84.91;97968.91;8713840;33;21395;-71
2020/12/29 15:50:45;;;;;;;21.20;11.37;;;;;;;4.57;84.73;97982.81;8713218;33;20152;-71
2020/12/29 15:55:47;;;;;;;30.37;12.07;;;;;;;4.41;84.87;97994.59;8713703;33;20282;-71
2020/12/29 16:00:50;;;;;;;32.43;14.90;;;;;;;4.67;84.59;97994.34;8714870;33;20505;-71
2020/12/29 16:05:54;;;;;;;26.33;11.73;;;;;;;4.59;84.39;97997.59;8713540;33;20196;-71
2020/12/29 16:10:57;;;;;;;26.07;11.40;;;;;;;4.48;84.92;98017.94;8709404;33;21108;-71
2020/12/29 16:15:59;;;;;;;13.82;7.75;;;;;;;4.48;84.31;98016.13;8714276;33;20289;-71
2020/12/29 16:21:03;;;;;;;27.93;10.97;;;;;;;4.58;84.24;98025.03;8711802;33;20242;-71
2020/12/29 16:26:06;;;;;;;34.47;14.77;;;;;;;4.63;84.25;98032.56;8713468;33;21521;-71
2020/12/29 16:31:08;;;;;;;22.73;9.93;;;;;;;4.55;83.94;98042.91;8714067;33;20937;-71
2020/12/29 16:36:11;;;;;;;29.83;15.00;;;;;;;4.71;84.00;98042.53;8715069;33;20207;-71
2020/12/29 16:41:14;;;;;;;22.07;10.43;;;;;;;4.74;83.80;98066.09;8716303;33;20937;-71
2020/12/29 16:46:16;;;;;;;31.73;14.13;;;;;;;4.90;83.53;98063.91;8719016;33;20214;-71
2020/12/29 16:51:20;;;;;;;27.80;13.40;;;;;;;4.93;83.48;98078.69;8719293;33;20602;-71
2020/12/29 16:56:22;;;;;;;34.67;15.05;;;;;;;4.90;83.43;98079.78;8719483;33;20144;-71
2020/12/29 17:01:25;;;;;;;25.42;12.35;;;;;;;4.98;82.90;98087.94;8717643;33;20237;-69
2020/12/29 17:06:28;;;;;;;30.83;13.63;;;;;;;5.02;82.79;98091.16;8718052;33;20617;-71
2020/12/29 17:11:31;;;;;;;15.70;7.72;;;;;;;5.05;82.30;98093.59;8717409;33;20180;-71
2020/12/29 17:16:46;;;;;;;34.30;13.63;;;;;;;5.13;81.93;98094.66;8716733;33;20180;-71
2020/12/29 17:22:00;;;;;;;13.13;8.07;;;;;;;5.03;81.42;98098.16;8714743;33;20672;-71
2020/12/29 17:27:06;;;;;;;27.02;13.55;;;;;;;4.97;81.28;98098.66;8717341;33;20255;-71
2020/12/29 17:32:09;;;;;;;24.15;11.55;;;;;;;5.12;80.89;98103.53;8720012;33;20283;-72
2020/12/29 17:37:12;;;;;;;11.10;5.80;;;;;;;5.13;80.00;98113.19;8688628;33;20156;-72
2020/12/29 17:42:14;;;;;;;21.75;10.68;;;;;;;5.20;79.14;98128.56;8719703;33;20188;-72
2020/12/29 17:47:17;;;;;;;19.03;9.60;;;;;;;5.37;78.42;98129.84;8718855;33;21243;-71
2020/12/29 17:52:20;;;;;;;22.27;11.38;;;;;;;5.35;78.73;98157.28;8717397;33;20644;-70
2020/12/29 17:57:25;;;;;;;19.73;8.02;;;;;;;5.32;78.24;98151.38;8719081;33;20266;-71
2020/12/29 18:02:27;;;;;;;12.20;5.53;;;;;;;5.15;78.61;98160.69;8719091;33;20187;-70
2020/12/29 18:07:31;;;;;;;12.85;8.45;;;;;;;5.03;78.47;98161.66;8694046;33;20433;-70
2020/12/29 18:12:33;;;;;;;9.93;5.45;;;;;;;5.17;77.70;98181.75;8718607;33;20148;-71
2020/12/29 18:17:36;;;;;;;15.15;7.82;;;;;;;5.03;77.94;98185.50;8718364;33;20176;-70
2020/12/29 18:22:41;;;;;;;21.08;8.60;;;;;;;5.21;78.01;98176.09;8715346;33;20187;-71
2020/12/29 18:28:01;;;;;;;18.23;8.00;;;;;;;5.19;78.57;98180.66;8716173;33;20767;-71
2020/12/29 18:33:05;;;;;;;16.65;8.68;;;;;;;5.29;77.85;98183.41;8716948;33;20225;-71
2020/12/29 18:38:26;;;;;;;17.23;9.30;;;;;;;5.34;78.16;98192.66;8716761;33;20656;-71
2020/12/29 18:43:29;;;;;;;23.10;10.82;;;;;;;5.24;77.67;98212.06;8717187;33;20541;-71
2020/12/29 18:48:31;;;;;;;14.30;7.20;;;;;;;5.21;77.64;98212.28;8716518;33;20194;-70
2020/12/29 18:53:34;;;;;;;15.25;7.40;;;;;;;5.27;77.53;98219.75;8716465;33;20187;-71
2020/12/29 18:58:39;;;;;;;22.17;10.00;;;;;;;5.23;77.55;98210.38;8715469;33;20430;-71
2020/12/29 19:03:41;;;;;;;18.33;8.13;;;;;;;5.34;77.55;98228.88;8714713;33;20283;-70
2020/12/29 19:08:44;;;;;;;19.73;10.43;;;;;;;5.53;76.86;98218.50;8713039;33;20874;-70
2020/12/29 19:13:47;;;;;;;12.82;7.28;;;;;;;5.28;75.94;98232.88;8714011;33;20218;-71
2020/12/29 19:18:52;;;;;;;14.88;7.28;;;;;;;5.35;75.35;98246.47;8714327;33;21066;-71
2020/12/29 19:23:56;;;;;;;18.27;8.52;;;;;;;5.39;74.92;98229.38;8715661;33;20219;-70
2020/12/29 19:28:59;;;;;;;17.65;8.75;;;;;;;5.43;74.44;98243.19;8714459;33;20525;-70
2020/12/29 19:34:01;;;;;;;14.93;7.05;;;;;;;5.53;74.29;98257.38;8713609;33;20799;-70
2020/12/29 19:39:04;;;;;;;16.80;8.65;;;;;;;5.62;73.72;98256.63;8713698;33;20237;-71
2020/12/29 19:44:07;;;;;;;13.93;7.25;;;;;;;5.42;73.53;98268.84;8714802;33;20528;-70
2020/12/29 19:49:09;;;;;;;14.88;7.53;;;;;;;5.62;73.30;98261.94;8714983;33;20279;-70
2020/12/29 19:54:12;;;;;;;13.38;5.68;;;;;;;5.36;73.50;98266.69;8714930;33;20221;-71
2020/12/29 19:59:14;;;;;;;11.95;5.55;;;;;;;5.46;73.12;98274.75;8714223;33;20279;-71
2020/12/29 20:04:18;;;;;;;13.95;7.45;;;;;;;5.49;72.31;98280.63;8714926;33;20853;-70
2020/12/29 20:09:21;;;;;;;14.38;7.63;;;;;;;5.50;72.29;98286.78;8714296;33;20812;-70
2020/12/29 20:14:23;;;;;;;16.27;7.13;;;;;;;5.27;72.76;98291.25;8692956;33;20990;-70
2020/12/29 20:19:25;;;;;;;12.23;4.88;;;;;;;5.48;71.83;98286.88;8728642;33;20233;-70
2020/12/29 20:24:28;;;;;;;13.23;7.13;;;;;;;5.49;72.13;98296.53;8718702;33;20759;-70
2020/12/29 20:29:31;;;;;;;12.43;6.78;;;;;;;5.35;72.67;98308.22;8718167;33;20463;-70
2020/12/29 20:34:33;;;;;;;7.40;3.43;;;;;;;5.23;72.47;98309.16;8719195;33;20574;-70
2020/12/29 20:39:36;;;;;;;9.05;5.45;;;;;;;5.56;72.06;98305.66;8719233;33;20662;-70
2020/12/29 20:44:43;;;;;;;15.05;8.00;;;;;;;5.53;72.01;98324.44;8719570;33;20274;-70
2020/12/29 20:49:45;;;;;;;12.23;6.57;;;;;;;5.61;71.87;98328.31;8717676;33;20305;-70
2020/12/29 20:54:49;;;;;;;11.00;5.40;;;;;;;5.33;71.90;98343.72;8719557;33;20429;-72
2020/12/29 20:59:51;;;;;;;13.27;7.35;;;;;;;5.55;71.82;98351.66;8718644;33;20271;-72
2020/12/29 21:04:53;;;;;;;12.85;7.30;;;;;;;5.34;71.97;98348.88;8694447;33;20187;-69
2020/12/29 21:09:56;;;;;;;9.77;4.75;;;;;;;5.29;72.52;98360.78;8718921;33;21909;-71
2020/12/29 21:14:59;;;;;;;12.57;5.70;;;;;;;5.19;72.86;98365.97;8718687;33;20128;-71
2020/12/29 21:20:01;;;;;;;12.90;6.38;;;;;;;5.26;72.54;98363.66;8718292;33;20247;-71
2020/12/29 21:25:06;;;;;;;12.88;7.47;;;;;;;5.42;72.14;98382.69;8693845;33;20244;-71
2020/12/29 21:30:08;;;;;;;13.48;6.82;;;;;;;5.31;72.28;98372.09;8718379;33;20766;-72
2020/12/29 21:35:10;;;;;;;11.15;6.07;;;;;;;5.31;72.26;98369.47;8717648;33;20183;-70
2020/12/29 21:40:14;;;;;;;13.43;7.10;;;;;;;5.32;71.97;98379.06;8717418;33;20346;-70
2020/12/29 21:45:16;;;;;;;11.18;6.60;;;;;;;5.33;71.47;98383.44;8717344;33;20237;-70
2020/12/29 21:50:19;;;;;;;8.57;5.40;;;;;;;5.08;72.08;98401.19;8716939;33;21043;-70
2020/12/29 21:55:22;;;;;;;13.73;5.85;;;;;;;5.20;71.80;98393.25;8717394;33;20549;-70
2020/12/29 22:00:24;;;;;;;10.52;5.38;;;;;;;5.07;71.87;98403.94;8716712;33;20647;-70
2020/12/29 22:05:27;;;;;;;10.80;5.80;;;;;;;4.99;72.50;98393.09;8718075;33;20245;-71
2020/12/29 22:10:30;;;;;;;8.82;5.50;;;;;;;5.06;72.29;98407.56;8717184;33;20695;-70
2020/12/29 22:15:32;;;;;;;11.13;6.03;;;;;;;5.18;72.35;98405.78;8716289;33;20176;-70
2020/12/29 22:20:35;;;;;;;12.33;6.03;;;;;;;5.03;73.09;98411.28;8716817;33;20299;-71
2020/12/29 22:25:38;;;;;;;7.25;4.03;;;;;;;4.83;72.92;98431.31;8717019;33;20238;-71
2020/12/29 22:30:40;;;;;;;6.95;3.53;;;;;;;5.01;73.05;98418.47;8716832;33;20151;-71
2020/12/29 22:35:42;;;;;;;8.10;5.00;;;;;;;4.93;73.39;98436.72;8674498;33;21376;-71
2020/12/29 22:40:45;;;;;;;12.25;6.28;;;;;;;4.83;73.65;98443.69;8717000;33;20449;-71
2020/12/29 22:45:48;;;;;;;10.45;5.32;;;;;;;4.85;73.65;98431.16;8716705;33;21766;-71
2020/12/29 22:50:50;;;;;;;10.43;6.03;;;;;;;4.98;73.48;98433.75;8716248;33;20730;-71
2020/12/29 22:55:53;;;;;;;14.07;7.45;;;;;;;5.11;73.14;98445.94;8716045;33;20751;-72
2020/12/29 23:00:56;;;;;;;8.60;4.88;;;;;;;4.88;73.78;98450.31;8715868;33;20526;-71
2020/12/29 23:05:58;;;;;;;12.15;7.50;;;;;;;4.93;73.82;98451.78;8715917;33;20152;-70
2020/12/29 23:11:03;;;;;;;10.68;5.72;;;;;;;4.95;73.76;98463.94;8714416;33;20972;-71
2020/12/29 23:16:07;;;;;;;10.97;5.97;;;;;;;5.06;73.27;98466.63;8715377;33;20684;-72
2020/12/29 23:21:10;;;;;;;12.40;6.63;;;;;;;4.88;73.74;98471.50;8717026;33;20465;-71
2020/12/29 23:26:13;;;;;;;16.00;6.75;;;;;;;5.16;73.08;98481.84;8716690;33;20151;-71
2020/12/29 23:31:17;;;;;;;10.50;6.32;;;;;;;4.90;73.68;98492.53;8716044;33;20192;-71
2020/12/29 23:36:22;;;;;;;12.30;6.85;;;;;;;4.99;73.74;98481.28;8715916;33;20449;-71
2020/12/29 23:41:27;;;;;;;15.52;6.95;;;;;;;5.27;72.86;98490.66;8715735;33;20231;-71
2020/12/29 23:46:29;;;;;;;14.27;7.47;;;;;;;5.15;73.31;98483.59;8715761;33;20337;-71
2020/12/29 23:51:31;;;;;;;12.88;7.45;;;;;;;5.16;73.15;98487.97;8715141;33;20187;-71
2020/12/29 23:56:35;;;;;;;10.27;6.47;;;;;;;5.02;73.34;98493.41;8714987;33;20440;-71
